Time;durP1;ratioP1;P1;durP2;ratioP2;P2;SDS_P1;SDS_P2;PMS_P1;PMS_P2;Temp;Humidity;BMP_temperature;BMP_pressure;BME280_temperature;BME280_humidity;BME280_pressure;Samples;Min_cycle;Max_cycle;Signal;HPM_P1;HPM_P2
2023/05/19 00:01:13;;;;;;;4.65;1.83;;;10.40;99.90;;;9.87;88.15;97699.75;4988138;28;20030;-37
2023/05/19 00:04:01;;;;;;;4.95;1.75;;;10.30;99.90;;;9.85;89.66;97714.75;4986176;28;20176;-37
2023/05/19 00:06:32;;;;;;;2.92;1.60;;;10.20;99.90;;;9.81;90.74;97707.81;4990369;28;20402;-37
2023/05/19 00:09:01;;;;;;;3.42;1.80;;;10.20;99.90;;;9.77;90.56;97710.59;4988740;28;20037;-37
2023/05/19 00:11:28;;;;;;;4.78;1.85;;;10.20;99.90;;;9.71;91.97;97695.84;4992085;28;20026;-37
2023/05/19 00:13:56;;;;;;;6.72;2.45;;;10.20;99.90;;;9.76;93.19;97707.06;4993664;28;20129;-37
2023/05/19 00:16:24;;;;;;;4.35;2.03;;;10.20;99.90;;;9.75;92.99;97706.22;4986155;28;20230;-37
2023/05/19 00:18:50;;;;;;;5.40;1.90;;;10.20;99.90;;;9.74;93.07;97706.25;4978131;28;20108;-37
2023/05/19 00:21:16;;;;;;;3.80;1.80;;;10.10;99.90;;;9.74;92.87;97709.78;4979994;28;20124;-37
2023/05/19 00:23:42;;;;;;;4.60;1.90;;;10.10;99.90;;;9.67;92.93;97694.19;4982216;28;20033;-37
2023/05/19 00:26:08;;;;;;;3.25;1.85;;;10.10;99.90;;;9.74;92.28;97698.34;4983715;28;20765;-37
2023/05/19 00:28:33;;;;;;;4.43;1.70;;;10.10;99.90;;;9.77;92.49;97697.44;4982871;28;20077;-37
2023/05/19 00:31:00;;;;;;;5.47;1.90;;;10.20;99.90;;;9.82;95.82;97699.00;4983967;28;20038;-37
2023/05/19 00:33:26;;;;;;;4.03;1.65;;;10.20;99.90;;;9.82;97.95;97700.78;4986908;28;20048;-37
2023/05/19 00:35:52;;;;;;;4.38;2.03;;;10.20;99.90;;;9.71;98.50;97688.78;4980056;28;20385;-37
2023/05/19 00:38:18;;;;;;;3.90;2.13;;;10.20;99.90;;;9.76;100.00;97696.53;4983612;28;20483;-36
2023/05/19 00:40:44;;;;;;;3.30;1.73;;;10.20;99.90;;;9.77;100.00;97700.06;4987191;28;20486;-37
2023/05/19 00:43:10;;;;;;;3.92;1.92;;;10.20;99.90;;;9.77;99.58;97695.66;4978234;28;20169;-37
2023/05/19 00:45:36;;;;;;;4.60;2.33;;;10.20;99.90;;;9.78;100.00;97702.66;4989051;28;20564;-36
2023/05/19 00:48:01;;;;;;;3.13;1.63;;;10.20;99.90;;;9.79;100.00;97696.47;4989223;28;20077;-37
2023/05/19 00:50:27;;;;;;;3.78;1.92;;;10.20;99.90;;;9.75;100.00;97694.84;4985873;28;20034;-37
2023/05/19 00:52:54;;;;;;;6.32;2.10;;;10.20;99.90;;;9.74;100.00;97693.97;4985528;28;20027;-36
2023/05/19 00:55:27;;;;;;;4.40;1.80;;;10.20;99.90;;;9.71;100.00;97696.69;4985855;28;20034;-37
2023/05/19 00:57:57;;;;;;;6.18;1.70;;;10.10;99.90;;;9.70;100.00;97694.09;4981387;28;20410;-36
2023/05/19 01:00:23;;;;;;;5.05;2.10;;;10.10;99.90;;;9.61;100.00;97679.41;4990462;28;20149;-37
2023/05/19 01:02:49;;;;;;;4.97;1.98;;;10.10;99.90;;;9.58;100.00;97670.75;4989920;28;20339;-36
2023/05/19 01:05:16;;;;;;;7.22;2.50;;;10.00;99.90;;;9.59;100.00;97683.88;4996842;28;20025;-36
2023/05/19 01:07:41;;;;;;;5.63;2.10;;;10.00;99.90;;;9.57;100.00;97682.19;4990168;28;20060;-37
2023/05/19 01:10:08;;;;;;;6.55;1.98;;;10.00;99.90;;;9.58;100.00;97687.41;4987974;28;20554;-37
2023/05/19 01:12:35;;;;;;;9.10;2.10;;;10.00;99.90;;;9.62;100.00;97686.44;4990853;28;20057;-37
2023/05/19 01:15:02;;;;;;;4.53;2.05;;;10.00;99.90;;;9.62;100.00;97675.00;4986095;28;20041;-37
2023/05/19 01:18:02;;;;;;;4.45;1.60;;;10.00;99.90;;;9.66;100.00;97682.78;5005323;28;20042;-37
2023/05/19 01:20:38;;;;;;;5.28;2.00;;;10.10;99.90;;;9.69;100.00;97685.34;4983874;28;20552;-36
2023/05/19 01:23:41;;;;;;;4.13;1.90;;;10.10;99.90;;;9.71;100.00;97687.94;4983462;28;21040;-37
2023/05/19 01:27:10;;;;;;;2.80;1.48;;;10.10;99.90;;;9.73;100.00;97688.75;4989438;28;20096;-37
2023/05/19 01:29:55;;;;;;;5.00;1.85;;;10.10;99.90;;;9.71;100.00;97694.06;4985298;28;20026;-37
2023/05/19 01:32:24;;;;;;;7.07;2.20;;;10.20;99.90;;;9.73;100.00;97694.88;4984846;28;20038;-36
2023/05/19 01:34:51;;;;;;;9.60;2.33;;;10.10;99.90;;;9.69;100.00;97698.50;4985141;28;20048;-36
2023/05/19 01:37:18;;;;;;;5.63;2.20;;;10.10;99.90;;;9.65;100.00;97696.84;4980889;28;20037;-36
2023/05/19 01:39:44;;;;;;;3.40;1.95;;;10.10;99.90;;;9.59;100.00;97698.81;4981055;28;20064;-36
2023/05/19 01:42:11;;;;;;;7.07;2.20;;;10.00;99.90;;;9.45;100.00;97681.63;4981378;28;20577;-36
2023/05/19 01:44:37;;;;;;;9.07;1.98;;;10.00;99.90;;;9.49;100.00;97695.56;4981484;28;20034;-37
2023/05/19 01:47:04;;;;;;;3.05;1.67;;;10.00;99.90;;;9.48;100.00;97694.69;4984775;28;20104;-37
2023/05/19 01:49:29;;;;;;;4.03;1.70;;;10.00;99.90;;;9.43;100.00;97695.75;4991720;28;20121;-36
2023/05/19 01:51:55;;;;;;;6.50;2.00;;;9.90;99.90;;;9.41;100.00;97692.28;4988721;28;20037;-38
2023/05/19 01:54:21;;;;;;;5.47;2.13;;;9.80;99.90;;;9.36;100.00;97688.00;4989685;28;20034;-37
2023/05/19 01:57:35;;;;;;;5.93;2.30;;;9.80;99.90;;;9.31;100.00;97687.28;4987225;28;20598;-36
2023/05/19 02:00:14;;;;;;;3.72;1.95;;;9.80;99.90;;;9.28;100.00;97691.78;4978627;28;20029;-36
2023/05/19 02:03:09;;;;;;;7.28;2.35;;;9.80;99.90;;;9.23;100.00;97688.41;4989084;28;20042;-36
2023/05/19 02:05:53;;;;;;;4.40;1.63;;;9.70;99.90;;;9.21;100.00;97700.72;4987254;28;20073;-37
2023/05/19 02:08:29;;;;;;;5.60;2.00;;;9.70;99.90;;;9.22;100.00;97692.78;4987952;28;20050;-37
2023/05/19 02:11:03;;;;;;;7.18;2.30;;;9.70;99.90;;;9.19;100.00;97692.88;4981232;28;20659;-36
2023/05/19 02:13:33;;;;;;;7.13;2.10;;;9.70;99.90;;;9.21;100.00;97698.97;4982159;28;20037;-36
2023/05/19 02:16:04;;;;;;;5.13;2.45;;;9.70;99.90;;;9.20;100.00;97697.22;4988129;28;20967;-36
2023/05/19 02:18:32;;;;;;;7.72;2.08;;;9.70;99.90;;;9.20;100.00;97693.72;4988103;28;20643;-36
2023/05/19 02:20:58;;;;;;;9.10;2.00;;;9.70;99.90;;;9.18;100.00;97696.41;4984986;28;20633;-36
2023/05/19 02:23:24;;;;;;;6.38;2.22;;;9.60;99.90;;;9.16;100.00;97696.44;4990041;28;20245;-37
2023/05/19 02:25:50;;;;;;;3.90;1.83;;;9.60;99.90;;;9.18;100.00;97693.78;4988606;28;20037;-36
2023/05/19 02:28:16;;;;;;;5.47;2.20;;;9.60;99.90;;;9.15;100.00;97694.72;4985862;28;20044;-37
2023/05/19 02:30:42;;;;;;;3.95;1.92;;;9.70;99.90;;;9.21;100.00;97695.47;4985140;28;20053;-36
2023/05/19 02:33:07;;;;;;;3.75;1.92;;;9.70;99.90;;;9.22;100.00;97695.41;4986014;28;20104;-36
2023/05/19 02:35:33;;;;;;;4.55;1.95;;;9.70;99.90;;;9.24;100.00;97696.25;4988971;28;20391;-37
2023/05/19 02:37:58;;;;;;;3.17;1.85;;;9.70;99.90;;;9.23;100.00;97689.25;4985966;28;20096;-36
2023/05/19 02:40:24;;;;;;;3.40;2.00;;;9.70;99.90;;;9.22;100.00;97692.78;4985743;28;20156;-37
2023/05/19 02:42:50;;;;;;;7.15;2.13;;;9.70;99.90;;;9.22;100.00;97694.56;4982430;28;20030;-36
2023/05/19 02:45:15;;;;;;;3.78;1.88;;;9.70;99.90;;;9.21;100.00;97696.31;4975482;28;20044;-36
2023/05/19 02:47:41;;;;;;;6.13;2.00;;;9.70;99.90;;;9.22;100.00;97695.41;4983658;28;20038;-36
2023/05/19 02:50:07;;;;;;;5.72;1.90;;;9.70;99.90;;;9.16;100.00;97679.78;4981097;28;20097;-36
2023/05/19 02:52:33;;;;;;;4.60;1.92;;;9.70;99.90;;;9.21;100.00;97677.91;4984966;28;20033;-36
2023/05/19 02:54:59;;;;;;;4.18;2.40;;;9.70;99.90;;;9.17;100.00;97685.03;4990046;28;20037;-37
2023/05/19 02:57:25;;;;;;;5.32;2.25;;;9.70;99.90;;;9.19;100.00;97674.47;4964959;28;20030;-36
2023/05/19 02:59:51;;;;;;;3.83;1.92;;;9.60;99.90;;;9.17;100.00;97682.38;4973365;28;20533;-37
2023/05/19 03:02:17;;;;;;;4.38;1.85;;;9.60;99.90;;;9.18;100.00;97672.72;4983237;28;20140;-38
2023/05/19 03:04:43;;;;;;;4.93;2.10;;;9.60;99.90;;;9.15;100.00;97681.56;4983991;28;20506;-37
2023/05/19 03:07:09;;;;;;;4.82;2.00;;;9.60;99.90;;;9.13;100.00;97672.84;4981363;28;20033;-37
2023/05/19 03:09:38;;;;;;;7.38;1.80;;;9.60;99.90;;;9.14;100.00;97674.56;4971880;28;20050;-36
2023/05/19 03:12:06;;;;;;;5.60;2.20;;;9.60;99.90;;;9.13;100.00;97667.59;4985226;28;20123;-37
2023/05/19 03:14:38;;;;;;;6.68;2.20;;;9.60;99.90;;;9.08;100.00;97673.84;4979946;28;20257;-36
2023/05/19 03:17:07;;;;;;;4.20;2.00;;;9.60;99.90;;;8.93;100.00;97654.94;4974814;28;20034;-37
2023/05/19 03:19:32;;;;;;;4.03;2.05;;;9.50;99.90;;;8.91;100.00;97650.66;4972330;28;20121;-36
2023/05/19 03:21:58;;;;;;;7.38;2.00;;;9.50;99.90;;;9.02;100.00;97674.03;4980103;28;20716;-36
2023/05/19 03:24:24;;;;;;;4.60;2.10;;;9.50;99.90;;;8.98;100.00;97673.25;4975981;28;20855;-36
2023/05/19 03:26:50;;;;;;;5.07;2.20;;;9.40;99.90;;;8.93;100.00;97675.13;4971385;28;20527;-36
2023/05/19 03:29:16;;;;;;;4.85;2.28;;;9.40;99.90;;;8.86;100.00;97669.16;4976032;28;20026;-36
2023/05/19 03:31:41;;;;;;;4.90;2.17;;;9.40;99.90;;;8.83;100.00;97666.63;4980632;28;20124;-37
2023/05/19 03:34:07;;;;;;;4.78;2.17;;;9.40;99.90;;;8.85;100.00;97675.34;4976980;28;20545;-37
2023/05/19 03:36:38;;;;;;;5.65;2.00;;;9.30;99.90;;;8.85;100.00;97677.97;4983542;28;20034;-37
2023/05/19 03:39:05;;;;;;;4.53;2.33;;;9.30;99.90;;;8.85;100.00;97674.47;4978110;28;20034;-37
2023/05/19 03:41:31;;;;;;;5.90;2.88;;;9.30;99.90;;;8.84;100.00;97676.22;4972327;28;20066;-37
2023/05/19 03:43:57;;;;;;;5.40;2.35;;;9.30;99.90;;;8.81;100.00;97675.44;4976701;28;20121;-36
2023/05/19 03:46:23;;;;;;;6.22;2.30;;;9.30;99.90;;;8.72;100.00;97681.78;4971061;28;20537;-37
2023/05/19 03:48:48;;;;;;;8.65;2.35;;;9.20;99.90;;;8.65;100.00;97675.84;4973653;28;20113;-36
2023/05/19 03:51:14;;;;;;;8.65;2.53;;;9.10;99.90;;;8.53;100.00;97663.84;4977080;28;20152;-36
2023/05/19 03:53:40;;;;;;;4.55;2.22;;;9.10;99.90;;;8.50;100.00;97670.94;4977635;28;20030;-36
2023/05/19 03:56:06;;;;;;;9.27;2.25;;;9.00;99.90;;;8.47;100.00;97676.28;4971799;28;21762;-36
2023/05/19 03:58:32;;;;;;;5.40;2.00;;;8.90;99.90;;;8.39;100.00;97677.28;4977365;28;20041;-36
2023/05/19 04:00:58;;;;;;;4.95;2.17;;;8.90;99.90;;;8.37;100.00;97680.88;5000197;28;20046;-36
2023/05/19 04:03:27;;;;;;;4.28;2.38;;;8.90;99.90;;;8.39;100.00;97684.31;4983896;28;20033;-36
2023/05/19 04:05:53;;;;;;;6.10;2.10;;;8.80;99.90;;;8.36;100.00;97687.00;4983662;28;20041;-36
2023/05/19 04:08:18;;;;;;;4.68;2.25;;;8.80;99.90;;;8.33;100.00;97681.84;4990732;28;20021;-36
2023/05/19 04:10:44;;;;;;;4.45;2.05;;;8.80;99.90;;;8.30;100.00;97685.41;4991115;28;20025;-36
2023/05/19 04:13:10;;;;;;;5.95;2.15;;;8.80;99.90;;;8.32;100.00;97693.25;4982594;28;20040;-36
2023/05/19 04:15:36;;;;;;;7.72;2.33;;;8.80;99.90;;;8.32;100.00;97694.09;4986243;28;20038;-36
2023/05/19 04:18:01;;;;;;;6.25;2.80;;;8.80;99.90;;;8.33;100.00;97695.00;4983146;28;20168;-36
2023/05/19 04:20:27;;;;;;;9.82;2.40;;;8.80;99.90;;;8.32;100.00;97690.63;4984116;28;20034;-36
2023/05/19 04:22:53;;;;;;;4.90;2.63;;;8.80;99.90;;;8.36;100.00;97690.53;4991636;28;20471;-36
2023/05/19 04:25:19;;;;;;;5.88;2.40;;;8.80;99.90;;;8.36;100.00;97694.91;4988486;28;20221;-36
2023/05/19 04:27:44;;;;;;;5.68;2.33;;;8.90;99.90;;;8.37;100.00;97694.00;4988678;28;20042;-36
2023/05/19 04:30:11;;;;;;;5.22;2.40;;;8.90;99.90;;;8.41;100.00;97696.50;4989661;28;20103;-37
2023/05/19 04:32:38;;;;;;;5.85;2.55;;;8.90;99.90;;;8.48;100.00;97696.41;4990887;28;20037;-37
2023/05/19 04:35:04;;;;;;;4.35;2.15;;;8.90;99.90;;;8.53;100.00;97695.41;4991015;28;20523;-36
2023/05/19 04:37:30;;;;;;;8.15;2.75;;;9.00;99.90;;;8.60;100.00;97696.13;4992320;28;20049;-36
2023/05/19 04:39:56;;;;;;;6.03;2.15;;;9.10;99.90;;;8.58;100.00;97690.91;4991246;28;20135;-36
2023/05/19 04:42:24;;;;;;;6.35;2.42;;;9.10;99.90;;;8.68;100.00;97696.78;4991338;28;20037;-38
2023/05/19 04:44:50;;;;;;;6.68;2.55;;;9.20;99.90;;;8.75;100.00;97702.75;4992906;28;20018;-36
2023/05/19 04:47:16;;;;;;;5.20;2.50;;;9.20;99.90;;;8.84;100.00;97697.28;4982602;28;20491;-36
2023/05/19 04:49:42;;;;;;;10.15;2.80;;;9.30;99.90;;;8.87;100.00;97694.56;4988039;28;20014;-37
2023/05/19 04:52:09;;;;;;;5.50;2.63;;;9.30;99.90;;;8.88;100.00;97683.16;4982943;28;20233;-36
2023/05/19 04:54:36;;;;;;;4.45;2.15;;;9.40;99.90;;;9.00;100.00;97689.00;4986804;28;20391;-36
2023/05/19 04:57:03;;;;;;;3.55;2.00;;;9.50;99.90;;;9.08;100.00;97687.91;4981980;28;20124;-36
2023/05/19 04:59:28;;;;;;;4.40;2.55;;;9.60;99.90;;;9.22;100.00;97700.66;4986616;28;20034;-37
2023/05/19 05:01:55;;;;;;;5.05;2.28;;;9.60;99.90;;;9.31;100.00;97704.81;4981573;28;20556;-37
2023/05/19 05:04:21;;;;;;;5.97;2.90;;;9.70;99.90;;;9.41;100.00;97702.81;4984638;28;20034;-37
2023/05/19 05:06:47;;;;;;;6.22;2.33;;;9.80;99.90;;;9.47;100.00;97708.75;4984004;28;20387;-37
2023/05/19 05:09:16;;;;;;;5.28;2.63;;;9.90;99.90;;;9.45;100.00;97705.31;4985920;28;20100;-37
2023/05/19 05:11:43;;;;;;;5.05;2.65;;;9.90;99.90;;;9.47;100.00;97700.88;4984832;28;20034;-36
2023/05/19 05:14:10;;;;;;;5.03;2.70;;;10.00;99.90;;;9.55;100.00;97701.53;4983997;28;20405;-37
2023/05/19 05:16:36;;;;;;;8.00;2.67;;;10.00;99.90;;;9.65;100.00;97703.91;4983112;28;20053;-37
2023/05/19 05:19:02;;;;;;;4.00;2.17;;;10.10;99.90;;;9.78;100.00;97699.13;4989099;28;20587;-37
2023/05/19 05:21:28;;;;;;;6.70;2.20;;;10.20;99.90;;;9.88;100.00;97697.97;4989541;28;20105;-37
2023/05/19 05:23:55;;;;;;;5.40;2.45;;;10.30;99.90;;;9.98;100.00;97694.16;4993026;28;20424;-37
2023/05/19 05:26:22;;;;;;;9.27;2.65;;;10.40;99.90;;;10.06;100.00;97699.19;4989158;28;20057;-36
2023/05/19 05:28:48;;;;;;;8.57;2.45;;;10.50;99.90;;;10.10;100.00;97688.53;4986059;28;20045;-37
2023/05/19 05:31:15;;;;;;;6.53;2.47;;;10.60;99.90;;;10.23;100.00;97701.31;4988711;28;20033;-37
2023/05/19 05:33:41;;;;;;;4.55;2.20;;;10.60;99.90;;;10.19;100.00;97690.00;4990729;28;20033;-37
2023/05/19 05:36:07;;;;;;;8.32;2.20;;;10.70;99.90;;;10.35;100.00;97698.31;4989667;28;20102;-37
2023/05/19 05:38:33;;;;;;;7.43;2.35;;;10.70;99.90;;;10.50;100.00;97697.84;4990047;28;20429;-36
2023/05/19 05:41:00;;;;;;;5.65;2.50;;;10.80;99.90;;;10.65;100.00;97701.75;4991628;28;20029;-37
2023/05/19 05:43:26;;;;;;;5.95;2.50;;;11.00;99.90;;;10.84;100.00;97709.94;4989191;28;20518;-37
2023/05/19 05:45:52;;;;;;;5.10;2.63;;;11.10;99.90;;;10.87;100.00;97704.59;4988647;28;20046;-37
2023/05/19 05:48:18;;;;;;;6.93;2.45;;;11.20;99.90;;;10.97;100.00;97699.84;4989040;28;20548;-39
2023/05/19 05:50:44;;;;;;;4.53;2.22;;;11.30;99.90;;;11.08;99.93;97704.75;4977092;28;20068;-36
2023/05/19 05:53:17;;;;;;;5.38;2.22;;;11.40;99.90;;;11.17;99.57;97708.88;4977636;28;20091;-37
2023/05/19 05:55:43;;;;;;;;;;;11.50;99.90;;;11.25;98.30;97706.81;4986024;28;20415;-38
2023/05/19 05:58:10;;;;;;;5.45;2.42;;;11.50;99.90;;;11.31;98.27;97708.41;4976929;28;20442;-40
2023/05/19 06:00:36;;;;;;;10.50;3.20;;;11.60;99.90;;;11.32;96.05;97710.97;4978156;28;20151;-38
2023/05/19 06:03:03;;;;;;;5.22;2.22;;;11.60;99.90;;;11.32;96.86;97716.25;4986382;28;20153;-37
2023/05/19 06:05:29;;;;;;;7.38;2.30;;;11.60;99.90;;;11.38;94.94;97715.19;4977242;28;20699;-37
2023/05/19 06:07:55;;;;;;;6.60;2.53;;;11.70;99.90;;;11.43;94.42;97711.47;4981471;28;20727;-37
2023/05/19 06:10:20;;;;;;;6.50;2.65;;;11.80;99.90;;;11.45;94.42;97700.84;4984311;28;20076;-36
2023/05/19 06:12:46;;;;;;;11.15;2.85;;;11.80;99.90;;;11.53;94.25;97705.84;4981754;28;20108;-37
2023/05/19 06:15:12;;;;;;;12.40;3.05;;;11.90;99.90;;;11.59;93.82;97708.25;4989365;28;20029;-37
2023/05/19 06:17:38;;;;;;;7.18;2.60;;;12.00;99.90;;;11.70;95.25;97708.75;4977652;28;20040;-37
2023/05/19 06:20:05;;;;;;;5.22;2.60;;;12.00;99.90;;;11.75;91.74;97705.91;4988446;28;20029;-36
2023/05/19 06:22:31;;;;;;;8.38;2.63;;;12.10;99.90;;;11.80;92.21;97693.41;4974391;28;20037;-37
2023/05/19 06:24:57;;;;;;;9.27;2.88;;;12.20;99.90;;;11.99;88.78;97698.91;4978652;28;20053;-38
2023/05/19 06:27:23;;;;;;;8.60;2.95;;;12.30;99.90;;;12.14;88.50;97706.22;4987805;28;20034;-37
2023/05/19 06:29:49;;;;;;;8.60;2.78;;;12.50;99.90;;;12.30;89.32;97695.06;4983335;28;20029;-37
2023/05/19 06:32:15;;;;;;;4.00;2.38;;;12.70;99.90;;;12.30;89.37;97698.56;4974942;28;20147;-37
2023/05/19 06:34:40;;;;;;;9.25;3.10;;;12.70;99.90;;;12.29;86.75;97702.16;4988372;28;20029;-37
2023/05/19 06:37:06;;;;;;;5.57;2.78;;;12.70;99.90;;;12.32;87.81;97696.72;4976947;28;20387;-37
2023/05/19 06:39:32;;;;;;;6.53;2.60;;;12.70;99.90;;;12.54;87.54;97701.16;4974319;28;20083;-37
2023/05/19 06:41:58;;;;;;;7.55;2.95;;;12.90;99.90;;;12.61;85.58;97697.34;4967892;28;20861;-37
2023/05/19 06:44:23;;;;;;;8.32;2.95;;;13.00;99.90;;;12.76;82.35;97698.53;4983144;28;20039;-37
2023/05/19 06:46:49;;;;;;;10.35;3.45;;;13.10;99.90;;;12.87;82.15;97703.38;4973533;28;20042;-37
2023/05/19 06:49:15;;;;;;;9.80;2.67;;;13.20;99.90;;;12.87;78.86;97698.09;4987748;28;20045;-36
2023/05/19 06:51:41;;;;;;;6.22;2.63;;;13.30;99.90;;;12.90;83.39;97698.81;4973716;28;20033;-37
2023/05/19 06:54:09;;;;;;;5.72;2.75;;;13.30;99.90;;;13.00;83.87;97696.66;4973119;28;20042;-37
2023/05/19 06:56:35;;;;;;;8.10;3.90;;;13.40;99.90;;;13.12;82.24;97693.47;4973334;28;20148;-37
2023/05/19 06:59:01;;;;;;;6.40;2.80;;;13.60;99.90;;;13.39;81.43;97700.31;4983080;28;20037;-37
2023/05/19 07:01:28;;;;;;;5.20;2.83;;;13.80;99.90;;;13.57;75.92;97704.84;4971981;28;20069;-37
2023/05/19 07:03:54;;;;;;;7.88;2.55;;;14.00;99.90;;;13.75;76.78;97706.66;4984990;28;20041;-36
2023/05/19 07:06:20;;;;;;;6.18;2.90;;;14.20;99.90;;;13.85;76.14;97688.53;4964448;28;20030;-37
2023/05/19 07:08:46;;;;;;;6.65;2.85;;;14.40;99.90;;;14.27;75.01;97703.41;4987658;28;20410;-37
2023/05/19 07:11:11;;;;;;;9.48;2.90;;;14.70;99.90;;;14.64;72.65;97695.50;4974673;28;20133;-37
2023/05/19 07:13:37;;;;;;;8.13;2.92;;;15.00;99.90;;;14.83;72.39;97698.97;4983404;28;20726;-37
2023/05/19 07:16:03;;;;;;;7.75;2.90;;;15.20;99.90;;;14.92;69.05;97704.78;4979313;28;20124;-37
2023/05/19 07:18:30;;;;;;;8.48;2.75;;;15.40;99.90;;;15.09;71.59;97699.47;4977497;28;24194;-37
2023/05/19 07:20:57;;;;;;;11.82;2.53;;;15.50;99.90;;;15.16;71.63;97700.03;4972244;28;20172;-37
2023/05/19 07:23:23;;;;;;;4.88;2.60;;;15.60;99.90;;;15.13;71.98;97701.06;4975052;28;20048;-38
2023/05/19 07:25:49;;;;;;;9.55;3.10;;;15.60;99.90;;;15.01;69.49;97696.34;4971732;28;20034;-40
2023/05/19 07:28:14;;;;;;;7.75;3.05;;;15.60;99.90;;;14.94;68.09;97698.44;4978464;28;20593;-41
2023/05/19 07:30:40;;;;;;;6.35;2.70;;;15.50;99.90;;;14.98;68.06;97694.69;4980133;28;20144;-39
2023/05/19 07:33:07;;;;;;;8.73;2.83;;;15.50;99.90;;;14.87;68.61;97694.38;4987318;28;20497;-39
2023/05/19 07:35:32;;;;;;;5.97;2.55;;;15.50;99.90;;;14.85;72.61;97694.44;4976132;28;20110;-39
2023/05/19 07:37:58;;;;;;;5.88;2.42;;;15.40;99.90;;;14.89;70.28;97693.38;4999025;22;20050;-36
2023/05/19 07:40:24;;;;;;;7.40;3.00;;;15.40;99.90;;;14.69;67.27;97691.69;4966334;28;20042;-36
2023/05/19 07:42:49;;;;;;;8.48;3.10;;;15.30;99.90;;;14.60;68.36;97688.63;4954585;28;21496;-36
2023/05/19 07:45:15;;;;;;;8.75;3.20;;;15.20;99.90;;;14.62;70.23;97671.69;4979647;28;20414;-36
2023/05/19 07:47:41;;;;;;;9.18;2.50;;;15.20;99.90;;;14.69;68.05;97690.84;4944041;28;20069;-36
2023/05/19 07:50:07;;;;;;;4.97;2.50;;;15.30;99.90;;;14.72;65.40;97689.84;4937856;28;20043;-36
2023/05/19 07:52:33;;;;;;;6.18;2.75;;;15.40;99.90;;;14.98;66.52;97680.56;4967687;28;20026;-36
2023/05/19 07:54:58;;;;;;;7.30;2.85;;;15.50;99.90;;;14.84;63.84;97687.44;4942443;28;20122;-36
2023/05/19 07:57:24;;;;;;;9.52;3.10;;;15.50;99.90;;;15.00;66.36;97676.91;4931415;28;20113;-36
2023/05/19 07:59:50;;;;;;;8.35;2.85;;;15.60;99.90;;;14.99;64.29;97683.16;4944839;28;20034;-36
2023/05/19 08:02:15;;;;;;;9.18;3.15;;;15.70;99.90;;;14.98;64.51;97686.72;4953789;28;20272;-36
2023/05/19 08:04:41;;;;;;;8.60;2.70;;;15.70;99.90;;;14.89;64.07;97687.19;4936468;28;20064;-36
2023/05/19 08:07:07;;;;;;;7.07;3.03;;;15.70;99.90;;;15.02;67.25;97685.66;4943328;28;20031;-36
2023/05/19 08:09:32;;;;;;;6.97;3.08;;;15.70;99.90;;;14.94;68.07;97673.69;4935352;28;20395;-36
2023/05/19 08:12:00;;;;;;;7.55;3.42;;;15.60;99.90;;;14.96;67.49;97682.44;4951156;28;20479;-36
2023/05/19 08:14:26;;;;;;;7.63;2.67;;;15.60;99.90;;;14.84;67.47;97666.19;4943460;28;23043;-36
2023/05/19 08:16:52;;;;;;;8.77;2.65;;;15.50;99.90;;;14.88;67.19;97670.41;4947949;28;20346;-35
2023/05/19 08:19:18;;;;;;;6.60;3.03;;;15.40;99.90;;;14.72;67.77;97680.06;4947732;28;20043;-37
2023/05/19 08:21:44;;;;;;;6.20;3.05;;;15.30;99.90;;;14.56;67.18;97668.47;4937133;28;20046;-36
2023/05/19 08:24:10;;;;;;;7.40;2.80;;;15.20;99.90;;;14.43;68.38;97681.47;4953907;28;20033;-37
2023/05/19 08:26:36;;;;;;;7.28;2.67;;;15.00;99.90;;;14.27;67.77;97676.88;4931756;28;20220;-36
2023/05/19 08:29:01;;;;;;;12.27;3.83;;;14.90;99.90;;;14.20;69.15;97672.78;4951222;28;20030;-37
2023/05/19 08:31:28;;;;;;;6.60;2.60;;;14.90;99.90;;;14.36;70.30;97662.31;4943293;28;20090;-37
2023/05/19 08:33:53;;;;;;;6.82;2.30;;;14.90;99.90;;;14.44;71.03;97656.63;4939670;28;20035;-37
2023/05/19 08:36:20;;;;;;;8.32;2.95;;;15.00;99.90;;;14.44;67.77;97664.59;4961929;28;20073;-37
2023/05/19 08:38:46;;;;;;;9.82;2.63;;;15.00;99.90;;;14.44;69.48;97661.94;4949069;28;20031;-37
2023/05/19 08:41:12;;;;;;;9.13;2.70;;;15.00;99.90;;;14.28;66.58;97672.44;4938557;28;20138;-37
2023/05/19 08:43:38;;;;;;;8.32;2.88;;;14.90;99.90;;;14.25;65.22;97664.63;4935895;28;20046;-37
2023/05/19 08:46:06;;;;;;;8.50;3.40;;;14.90;99.90;;;14.14;67.57;97665.16;4957965;28;20081;-37
2023/05/19 08:48:34;;;;;;;8.80;2.80;;;14.80;99.90;;;14.10;67.24;97644.97;4946084;28;20059;-37
2023/05/19 08:51:32;;;;;;;7.07;2.70;;;14.80;99.90;;;14.23;71.38;97656.75;4941777;28;20051;-37
2023/05/19 08:54:11;;;;;;;6.45;3.10;;;14.80;99.90;;;14.21;67.52;97657.72;4938840;28;20038;-37
2023/05/19 08:56:37;;;;;;;8.18;2.67;;;14.80;99.90;;;14.31;68.51;97657.22;4948126;28;20129;-37
2023/05/19 08:59:04;;;;;;;8.68;2.75;;;14.90;99.90;;;14.46;70.10;97660.06;4959171;28;20046;-37
2023/05/19 09:01:30;;;;;;;7.15;2.78;;;15.00;99.90;;;14.57;69.29;97655.13;4944941;28;20041;-37
2023/05/19 09:03:56;;;;;;;6.10;2.70;;;15.10;99.90;;;14.58;66.72;97663.97;4951009;28;20057;-37
2023/05/19 09:06:22;;;;;;;6.50;2.90;;;15.20;99.90;;;14.53;66.52;97656.19;4941744;28;20878;-37
2023/05/19 09:08:48;;;;;;;10.02;3.00;;;15.20;99.90;;;14.80;69.69;97647.81;4962576;28;20092;-37
2023/05/19 09:11:14;;;;;;;6.68;3.00;;;15.30;99.90;;;15.01;65.84;97659.16;4938009;28;20034;-37
2023/05/19 09:13:40;;;;;;;5.00;2.40;;;15.50;99.90;;;14.97;64.35;97658.47;4933850;28;20298;-37
2023/05/19 09:16:06;;;;;;;8.63;2.60;;;15.60;99.90;;;14.98;64.05;97657.50;4964015;28;20091;-36
2023/05/19 09:18:32;;;;;;;5.47;3.03;;;15.60;99.90;;;14.97;65.25;97655.81;4966922;28;20138;-36
2023/05/19 09:21:01;;;;;;;8.18;3.33;;;15.70;99.90;;;15.01;63.85;97661.81;4967054;28;20131;-36
2023/05/19 09:23:34;;;;;;;9.85;3.00;;;15.80;99.90;;;14.99;63.90;97653.94;4947531;28;20719;-36
2023/05/19 09:26:03;;;;;;;4.85;2.63;;;15.70;99.90;;;15.15;66.52;97659.31;4966241;28;20122;-35
2023/05/19 09:28:36;;;;;;;14.68;2.97;;;15.70;99.90;;;15.28;64.00;97668.38;4947074;28;20034;-36
2023/05/19 09:31:05;;;;;;;7.60;3.00;;;15.90;99.90;;;15.06;62.60;97658.00;4963443;28;20395;-35
2023/05/19 09:33:36;;;;;;;7.75;2.50;;;15.80;99.90;;;15.01;62.43;97657.38;4957369;28;20335;-37
2023/05/19 09:36:04;;;;;;;8.15;2.92;;;15.70;99.90;;;15.04;65.64;97664.34;4961150;28;20031;-36
2023/05/19 09:38:30;;;;;;;7.25;2.28;;;15.70;99.90;;;15.07;62.81;97659.72;4968721;28;20030;-37
2023/05/19 09:40:58;;;;;;;7.65;2.80;;;15.70;99.90;;;15.12;64.21;97655.97;4966952;28;20066;-35
2023/05/19 09:43:28;;;;;;;5.68;2.38;;;15.70;99.90;;;15.23;65.99;97649.16;4967424;28;20045;-35
2023/05/19 09:46:08;;;;;;;5.90;2.83;;;15.70;99.90;;;15.13;64.82;97655.91;4965852;28;20407;-36
2023/05/19 09:48:35;;;;;;;9.32;2.40;;;15.70;99.90;;;15.27;66.83;97650.72;4965420;28;20049;-36
2023/05/19 09:51:06;;;;;;;7.80;2.85;;;15.70;99.90;;;15.21;64.19;97650.19;4964698;28;20094;-36
2023/05/19 09:53:33;;;;;;;6.25;2.50;;;15.70;99.90;;;15.23;62.77;97656.25;4968693;28;20027;-36
2023/05/19 09:56:01;;;;;;;8.32;3.22;;;15.80;99.90;;;15.41;61.11;97646.47;4960538;28;20489;-35
2023/05/19 09:58:33;;;;;;;7.53;3.05;;;16.00;99.90;;;15.50;62.61;97639.81;4955541;28;20446;-35
2023/05/19 10:01:00;;;;;;;7.60;2.42;;;16.00;99.90;;;15.67;63.20;97645.09;4945071;28;20442;-37
2023/05/19 10:03:27;;;;;;;7.50;2.47;;;16.20;99.90;;;15.56;60.70;97628.84;4959639;28;20119;-37
2023/05/19 10:05:53;;;;;;;12.45;2.22;;;16.20;99.90;;;15.80;62.53;97632.88;4960673;28;20137;-37
2023/05/19 10:08:20;;;;;;;7.03;2.70;;;16.30;99.90;;;15.89;62.31;97636.84;4951897;28;20277;-36
2023/05/19 10:10:47;;;;;;;7.20;2.55;;;16.40;99.90;;;16.09;61.56;97641.06;4961811;28;20058;-36
2023/05/19 10:13:13;;;;;;;7.28;2.53;;;16.60;99.90;;;15.97;58.50;97634.63;4966793;28;20073;-36
2023/05/19 10:15:44;;;;;;;9.32;2.63;;;16.60;99.90;;;15.96;57.43;97637.38;4965468;28;20050;-36
2023/05/19 10:18:10;;;;;;;12.52;2.60;;;16.50;99.90;;;15.81;58.71;97644.41;4965224;28;20027;-36
2023/05/19 10:20:37;;;;;;;6.40;2.50;;;16.50;99.90;;;15.48;58.65;97647.03;4962344;28;20052;-36
2023/05/19 10:23:03;;;;;;;7.03;2.63;;;16.30;99.90;;;15.49;59.85;97644.28;4951477;28;20050;-36